Time;durP1;ratioP1;P1;durP2;ratioP2;P2;SDS_P1;SDS_P2;PMS_P1;PMS_P2;Temp;Humidity;BMP_temperature;BMP_pressure;BME280_temperature;BME280_humidity;BME280_pressure;Samples;Min_cycle;Max_cycle;Signal;HPM_P1;HPM_P2
2023/10/12 00:01:57;;;;;;;2.90;2.05;;;;;;;6.14;72.92;97375.69;5115567;28;20062;-62
2023/10/12 00:04:29;;;;;;;6.03;2.00;;;;;;;6.16;73.39;97376.50;5115344;28;20051;-62
2023/10/12 00:06:58;;;;;;;2.85;2.00;;;;;;;6.17;74.58;97373.91;5115206;28;20564;-63
2023/10/12 00:09:27;;;;;;;4.22;2.55;;;;;;;6.11;74.57;97373.94;5115330;28;20458;-62
2023/10/12 00:11:58;;;;;;;3.30;2.10;;;;;;;6.15;74.79;97378.28;5115244;28;20083;-62
2023/10/12 00:14:32;;;;;;;3.80;2.20;;;;;;;6.14;74.14;97366.13;5115286;28;20055;-62
2023/10/12 00:16:59;;;;;;;2.58;1.80;;;;;;;6.12;73.84;97365.28;5115202;28;20052;-63
2023/10/12 00:19:26;;;;;;;3.72;2.40;;;;;;;6.03;73.87;97363.59;5115136;28;20554;-62
2023/10/12 00:22:00;;;;;;;7.50;2.45;;;;;;;6.03;74.15;97370.50;5115101;27;20048;-62
2023/10/12 00:24:30;;;;;;;4.20;2.42;;;;;;;6.02;74.11;97363.59;5115110;28;20127;-62
2023/10/12 00:26:58;;;;;;;;;;;;;;;5.99;74.28;97361.03;5115490;28;20443;-62
2023/10/12 00:29:25;;;;;;;2.83;1.85;;;;;;;5.96;73.93;97356.69;5114935;28;19920;-62
2023/10/12 00:31:54;;;;;;;3.53;2.08;;;;;;;5.88;73.83;97355.88;5115124;28;20454;-63
2023/10/12 00:34:23;;;;;;;3.05;1.90;;;;;;;5.89;73.54;97360.19;5115098;28;20100;-63
2023/10/12 00:36:53;;;;;;;4.90;2.13;;;;;;;5.89;73.87;97357.59;5114941;28;20071;-62
2023/10/12 00:39:27;;;;;;;4.85;2.25;;;;;;;5.85;73.92;97350.72;5114988;28;20065;-62
2023/10/12 00:41:56;;;;;;;3.55;2.30;;;;;;;5.88;74.51;97350.69;5114709;28;20171;-62
2023/10/12 00:44:28;;;;;;;4.55;2.17;;;;;;;5.87;75.74;97343.78;5114905;28;20048;-63
2023/10/12 00:47:10;;;;;;;2.35;1.83;;;;;;;5.86;74.82;97340.31;5114777;28;20134;-62
2023/10/12 00:49:41;;;;;;;2.42;2.10;;;;;;;5.85;74.31;97332.53;5114775;28;20109;-62
2023/10/12 00:52:11;;;;;;;2.88;2.38;;;;;;;5.80;74.17;97329.97;5114700;28;20123;-62
2023/10/12 00:54:43;;;;;;;2.75;2.08;;;;;;;5.77;74.07;97320.47;5114632;27;20138;-63
2023/10/12 00:57:11;;;;;;;3.22;2.25;;;;;;;5.82;74.26;97323.03;5114485;28;20051;-62
2023/10/12 00:59:39;;;;;;;3.38;2.28;;;;;;;5.77;75.92;97317.88;5114434;28;20139;-63
2023/10/12 01:02:09;;;;;;;4.97;2.28;;;;;;;5.77;75.65;97323.06;5114160;28;20496;-62
2023/10/12 01:04:37;;;;;;;5.70;2.38;;;;;;;5.73;75.54;97317.88;5114412;28;20079;-61
2023/10/12 01:07:06;;;;;;;3.28;1.80;;;;;;;5.77;75.31;97319.59;5114029;28;20047;-63
2023/10/12 01:09:42;;;;;;;2.85;1.88;;;;;;;5.78;75.42;97318.75;5114325;28;20046;-62
2023/10/12 01:12:14;;;;;;;3.88;2.53;;;;;;;5.74;75.85;97320.47;5114197;28;20047;-62
2023/10/12 01:14:43;;;;;;;3.90;2.53;;;;;;;5.74;74.87;97323.06;5114185;28;20047;-62
2023/10/12 01:17:16;;;;;;;6.93;2.78;;;;;;;5.68;75.02;97323.97;5114184;28;20184;-62
2023/10/12 01:19:46;;;;;;;4.10;2.20;;;;;;;5.69;74.39;97327.44;5114068;28;20054;-62
2023/10/12 01:22:15;;;;;;;3.03;2.33;;;;;;;5.64;74.53;97324.88;5113940;28;20059;-63
2023/10/12 01:24:57;;;;;;;6.15;2.10;;;;;;;5.60;74.99;97327.50;5113822;28;20055;-63
2023/10/12 01:27:25;;;;;;;7.28;2.70;;;;;;;5.61;75.29;97330.06;5113504;28;20143;-62
2023/10/12 01:29:52;;;;;;;8.52;2.85;;;;;;;5.59;75.32;97324.03;5113909;28;20040;-63
2023/10/12 01:32:27;;;;;;;2.83;2.10;;;;;;;5.60;75.72;97319.72;5113806;28;20413;-62
2023/10/12 01:34:55;;;;;;;6.32;2.30;;;;;;;5.57;75.52;97325.78;5113782;28;20051;-62
2023/10/12 01:37:25;;;;;;;3.30;2.00;;;;;;;5.56;75.68;97324.03;5113744;28;20044;-61
2023/10/12 01:39:58;;;;;;;4.87;2.30;;;;;;;5.56;75.05;97319.72;5113713;28;20053;-63
2023/10/12 01:42:49;;;;;;;3.75;2.33;;;;;;;5.44;75.34;97315.47;5113659;28;20051;-62
2023/10/12 01:45:18;;;;;;;4.20;2.15;;;;;;;5.42;76.15;97314.59;5113566;28;20085;-61
2023/10/12 01:47:45;;;;;;;3.80;2.17;;;;;;;5.38;76.23;97319.78;5113602;28;20135;-62
2023/10/12 01:50:14;;;;;;;4.90;2.60;;;;;;;5.37;75.87;97307.69;5113662;28;20505;-63
2023/10/12 01:52:46;;;;;;;4.53;2.17;;;;;;;5.42;75.41;97319.78;5113702;28;20055;-61
2023/10/12 01:55:19;;;;;;;3.65;2.33;;;;;;;5.40;76.03;97320.66;5113632;28;20047;-61
2023/10/12 01:57:53;;;;;;;6.18;2.30;;;;;;;5.44;76.36;97318.06;5113409;28;20052;-62
2023/10/12 02:00:25;;;;;;;3.30;2.20;;;;;;;5.44;76.57;97311.97;5113359;28;20059;-63
2023/10/12 02:03:01;;;;;;;4.30;2.47;;;;;;;5.47;76.02;97317.16;5113623;28;20044;-62
2023/10/12 02:05:30;;;;;;;5.03;2.33;;;;;;;5.42;75.84;97316.34;5113301;28;20511;-62
2023/10/12 02:08:05;;;;;;;6.25;2.47;;;;;;;5.41;75.82;97312.88;5113359;28;20047;-62
2023/10/12 02:10:42;;;;;;;3.17;2.03;;;;;;;5.38;75.38;97312.88;5113483;28;20054;-62
2023/10/12 02:13:10;;;;;;;7.00;2.50;;;;;;;5.39;75.68;97321.53;5113473;28;20048;-63
2023/10/12 02:15:38;;;;;;;3.08;2.25;;;;;;;5.41;75.36;97312.00;5113304;28;20462;-62
2023/10/12 02:18:17;;;;;;;2.53;2.30;;;;;;;5.44;75.86;97318.06;5113266;28;20055;-62
2023/10/12 02:20:59;;;;;;;3.72;2.28;;;;;;;5.42;75.99;97317.19;5113233;28;20044;-62
2023/10/12 02:23:36;;;;;;;3.55;2.40;;;;;;;5.34;76.58;97311.19;5113378;28;20056;-63
2023/10/12 02:26:07;;;;;;;4.40;2.40;;;;;;;5.33;76.64;97313.78;5113268;28;20051;-62
2023/10/12 02:28:38;;;;;;;4.10;2.40;;;;;;;5.29;77.14;97310.31;5113570;28;20065;-62
2023/10/12 02:31:05;;;;;;;3.20;2.28;;;;;;;5.26;76.93;97311.22;5113189;28;20508;-62
2023/10/12 02:33:37;;;;;;;3.95;2.30;;;;;;;5.24;76.73;97309.50;5113260;28;20051;-62
2023/10/12 02:36:09;;;;;;;3.53;2.22;;;;;;;5.21;76.75;97309.50;5113281;28;20458;-62
2023/10/12 02:38:39;;;;;;;4.25;2.30;;;;;;;5.18;77.27;97313.81;5113432;28;20087;-62
2023/10/12 02:41:12;;;;;;;4.03;2.08;;;;;;;5.17;77.46;97301.75;5117159;28;20055;-62
2023/10/12 02:43:42;;;;;;;4.55;2.20;;;;;;;5.17;77.52;97301.75;5117026;28;20054;-61
2023/10/12 02:46:21;;;;;;;3.08;2.17;;;;;;;5.18;77.09;97303.44;5117107;28;20043;-62
2023/10/12 02:48:50;;;;;;;3.90;2.25;;;;;;;5.06;77.29;97293.16;5117043;28;20054;-62
2023/10/12 02:51:18;;;;;;;3.88;2.72;;;;;;;5.06;77.82;97293.16;5117103;28;20080;-62
2023/10/12 02:53:47;;;;;;;3.92;2.15;;;;;;;5.06;77.71;97291.41;5116926;27;20047;-62
2023/10/12 02:56:21;;;;;;;3.13;2.30;;;;;;;5.07;77.52;97297.47;5116947;28;20079;-62
2023/10/12 02:58:49;;;;;;;4.78;2.20;;;;;;;5.04;77.33;97293.16;5116851;28;20083;-61
2023/10/12 03:01:21;;;;;;;2.70;2.15;;;;;;;5.09;77.27;97292.25;5116765;28;20047;-63
2023/10/12 03:03:54;;;;;;;4.28;2.35;;;;;;;5.05;78.17;97288.81;5116823;28;20123;-62
2023/10/12 03:06:23;;;;;;;4.00;2.47;;;;;;;5.04;78.42;97290.56;5116548;27;20155;-62
2023/10/12 03:09:14;;;;;;;4.28;2.35;;;;;;;4.98;77.92;97292.28;5116723;28;20047;-62
2023/10/12 03:11:42;;;;;;;2.15;1.67;;;;;;;4.97;77.53;97286.22;5116762;27;20066;-61
2023/10/12 03:14:14;;;;;;;4.13;2.38;;;;;;;4.98;77.75;97290.56;5116611;28;20044;-63
2023/10/12 03:16:42;;;;;;;4.57;2.13;;;;;;;4.90;76.97;97287.13;5116430;28;20550;-63
2023/10/12 03:19:22;;;;;;;2.63;2.25;;;;;;;4.90;77.48;97292.31;5116560;28;20047;-63
2023/10/12 03:21:51;;;;;;;3.60;2.45;;;;;;;4.87;76.97;97294.91;5116332;28;20140;-63
2023/10/12 03:24:23;;;;;;;2.85;2.25;;;;;;;4.87;76.87;97293.19;5116423;28;20043;-63
2023/10/12 03:27:09;;;;;;;4.90;2.58;;;;;;;4.86;77.33;97286.28;5116220;28;20104;-62
2023/10/12 03:29:43;;;;;;;5.72;2.20;;;;;;;4.88;77.61;97283.69;5116422;28;20093;-62
2023/10/12 03:32:11;;;;;;;3.25;2.30;;;;;;;4.93;77.79;97279.34;5116360;28;20132;-63
2023/10/12 03:34:53;;;;;;;5.95;2.17;;;;;;;4.89;77.69;97293.19;5116216;28;20165;-62
2023/10/12 03:37:40;;;;;;;4.13;2.60;;;;;;;4.82;78.49;97282.00;5116146;28;20126;-61
2023/10/12 03:42:53;;;;;;;4.53;2.53;;;;;;;4.80;78.90;97283.72;5115669;28;20047;-62
2023/10/12 03:45:33;;;;;;;4.60;2.88;;;;;;;4.73;79.44;97275.06;5116249;28;20055;-61
2023/10/12 03:48:24;;;;;;;7.35;2.40;;;;;;;4.67;79.53;97275.97;5115911;28;20100;-62
2023/10/12 03:51:17;;;;;;;4.65;2.60;;;;;;;4.73;78.98;97282.00;5115810;28;20048;-62
2023/10/12 03:53:56;;;;;;;3.55;2.38;;;;;;;4.68;79.16;97285.47;5115756;28;20047;-61
2023/10/12 03:56:28;;;;;;;5.35;2.53;;;;;;;4.68;79.17;97288.06;5115644;28;20052;-61
2023/10/12 03:59:02;;;;;;;4.97;2.50;;;;;;;4.69;79.11;97288.91;5115711;28;20044;-61
2023/10/12 04:01:31;;;;;;;7.13;2.38;;;;;;;4.71;79.08;97289.78;5115484;28;20044;-61
2023/10/12 04:04:10;;;;;;;2.53;1.88;;;;;;;4.72;79.14;97286.31;5115601;28;20079;-61
2023/10/12 04:07:04;;;;;;;2.92;2.20;;;;;;;4.66;78.96;97279.44;5115526;28;20052;-61
2023/10/12 04:09:42;;;;;;;3.33;2.33;;;;;;;4.55;79.95;97273.41;5115427;28;20070;-61
2023/10/12 04:12:35;;;;;;;3.17;2.70;;;;;;;4.61;80.21;97285.50;5115317;28;20051;-62
2023/10/12 04:15:08;;;;;;;3.38;2.50;;;;;;;4.58;80.40;97278.59;5115499;28;20406;-61
2023/10/12 04:17:41;;;;;;;3.75;2.40;;;;;;;4.55;80.08;97281.19;5115368;28;20043;-62
2023/10/12 04:20:21;;;;;;;3.53;2.70;;;;;;;4.52;80.28;97270.84;5115473;28;20413;-62
2023/10/12 04:25:49;;;;;;;5.28;2.22;;;;;;;4.54;80.71;97269.97;5099341;28;20616;-62
2023/10/12 04:28:32;;;;;;;3.92;2.22;;;;;;;4.61;80.30;97273.38;5115409;28;20134;-62
2023/10/12 04:31:20;;;;;;;6.60;2.67;;;;;;;4.65;79.83;97274.25;5115103;28;20059;-62
2023/10/12 04:34:01;;;;;;;3.17;2.45;;;;;;;4.66;80.14;97279.44;5115085;28;20043;-62
2023/10/12 04:36:33;;;;;;;;;;;;;;;4.69;79.99;97283.75;5115504;28;20044;-63
2023/10/12 04:39:17;;;;;;;5.78;2.00;;;;;;;4.67;79.73;97277.72;5114940;28;20447;-62
2023/10/12 04:42:04;;;;;;;3.45;2.25;;;;;;;4.72;79.47;97283.72;5114691;28;20048;-62
2023/10/12 04:44:43;;;;;;;4.72;2.83;;;;;;;4.75;79.56;97273.34;5114801;28;20415;-62
2023/10/12 04:47:10;;;;;;;4.13;2.28;;;;;;;4.82;78.60;97279.41;5114720;28;20079;-62
2023/10/12 04:52:36;;;;;;;3.53;2.35;;;;;;;4.88;79.01;97276.75;5114654;27;20074;-63
2023/10/12 04:57:44;;;;;;;5.75;2.55;;;;;;;4.88;80.23;97284.53;5113453;28;20048;-62
2023/10/12 05:00:18;;;;;;;4.38;2.30;;;;;;;4.95;80.32;97277.63;5114422;28;20537;-62
2023/10/12 05:03:22;;;;;;;7.03;2.28;;;;;;;5.03;80.00;97283.63;5113515;28;20059;-62
2023/10/12 05:06:04;;;;;;;5.60;2.22;;;;;;;5.10;79.75;97283.59;5114243;28;20058;-62
2023/10/12 05:08:33;;;;;;;6.07;2.30;;;;;;;5.18;79.65;97284.44;5114305;28;20058;-62
2023/10/12 05:11:00;;;;;;;3.85;2.08;;;;;;;5.25;78.82;97287.88;5114213;28;20096;-62
2023/10/12 05:13:28;;;;;;;4.70;2.78;;;;;;;5.66;79.12;97284.16;5114275;28;20073;-62
2023/10/12 05:16:02;;;;;;;8.68;2.25;;;;;;;7.01;75.70;97280.41;5114142;28;20074;-62
2023/10/12 05:18:31;;;;;;;4.05;2.45;;;;;;;8.66;69.29;97280.56;5114125;28;20047;-62
2023/10/12 05:20:58;;;;;;;2.75;2.05;;;;;;;10.17;64.26;97289.56;5114099;28;20485;-63
2023/10/12 05:23:25;;;;;;;3.13;1.83;;;;;;;11.65;58.88;97305.69;5113945;28;20051;-63
2023/10/12 05:29:17;;;;;;;4.20;1.80;;;;;;;14.51;49.16;97285.97;5152296;27;20382;-61
2023/10/12 05:31:49;;;;;;;3.22;1.85;;;;;;;15.77;46.09;97290.16;5152109;27;20499;-63
2023/10/12 05:34:44;;;;;;;2.38;1.55;;;;;;;16.72;43.77;97279.44;5152327;27;20053;-63
2023/10/12 05:37:24;;;;;;;2.50;1.60;;;;;;;17.53;41.83;97290.25;5152135;27;20107;-63
2023/10/12 05:39:52;;;;;;;2.90;1.60;;;;;;;18.16;41.10;97290.38;5152148;27;20043;-62
2023/10/12 05:42:22;;;;;;;2.13;1.63;;;;;;;18.94;39.68;97291.16;5151946;27;20043;-63
2023/10/12 05:44:51;;;;;;;2.47;1.83;;;;;;;19.61;38.55;97303.03;5152018;27;20046;-63
2023/10/12 05:47:28;;;;;;;2.30;1.63;;;;;;;20.21;36.65;97300.19;5151952;27;20107;-63
2023/10/12 05:49:57;;;;;;;5.75;1.63;;;;;;;20.93;36.05;97299.00;5152074;27;20061;-63
2023/10/12 05:52:24;;;;;;;4.07;1.60;;;;;;;21.53;35.50;97300.25;5151838;27;20043;-63
2023/10/12 05:54:57;;;;;;;2.55;1.80;;;;;;;22.01;34.97;97302.19;5151676;27;20115;-62
2023/10/12 05:57:26;;;;;;;3.45;1.58;;;;;;;22.75;33.71;97311.03;5151836;27;20549;-63
2023/10/12 05:59:58;;;;;;;2.38;1.50;;;;;;;23.40;33.12;97310.56;5151572;27;20075;-62
2023/10/12 06:02:26;;;;;;;2.67;1.67;;;;;;;24.08;31.90;97322.19;5151698;27;20065;-63
2023/10/12 06:04:53;;;;;;;2.33;1.55;;;;;;;24.38;31.93;97325.16;5151550;27;20070;-62
2023/10/12 06:07:22;;;;;;;2.60;1.40;;;;;;;24.76;30.98;97323.78;5151440;27;20050;-63
2023/10/12 06:09:53;;;;;;;3.80;1.23;;;;;;;25.26;30.13;97308.06;5151462;27;20050;-63
2023/10/12 06:12:21;;;;;;;;;;;;;;;25.59;29.38;97314.16;5151699;27;20496;-62
2023/10/12 06:14:53;;;;;;;3.80;2.30;;;;;;;25.90;29.08;97324.00;5151301;27;19971;-63
2023/10/12 06:17:30;;;;;;;8.30;1.85;;;;;;;26.37;28.34;97318.91;5151263;27;20828;-63
2023/10/12 06:20:10;;;;;;;3.28;1.80;;;;;;;26.83;28.13;97318.34;5151329;27;20050;-63
2023/10/12 06:22:38;;;;;;;5.10;1.67;;;;;;;27.18;27.54;97312.53;5151148;27;20507;-63
2023/10/12 06:25:10;;;;;;;3.13;1.85;;;;;;;27.47;27.06;97315.13;5151129;27;20043;-63
2023/10/12 06:27:37;;;;;;;4.57;1.65;;;;;;;27.87;26.63;97320.34;5150836;27;20123;-63
2023/10/12 06:30:16;;;;;;;2.63;1.83;;;;;;;28.31;26.21;97325.06;5151284;27;20051;-62
2023/10/12 06:32:47;;;;;;;4.23;2.33;;;;;;;28.79;25.43;97321.28;5150978;27;20038;-63
2023/10/12 06:35:24;;;;;;;;;;;;;;;29.16;24.53;97322.13;5151388;27;20135;-62
2023/10/12 06:38:15;;;;;;;2.00;1.75;;;;;;;29.42;24.78;97314.03;5150943;27;19923;-62
2023/10/12 06:40:48;;;;;;;4.10;1.90;;;;;;;29.97;24.29;97311.09;5137097;27;20506;-63
2023/10/12 06:46:03;;;;;;;3.30;1.80;;;;;;;30.92;23.30;97305.56;5137155;27;20054;-63
2023/10/12 06:51:23;;;;;;;2.38;1.65;;;;;;;31.74;22.40;97309.09;5125733;27;20055;-61
2023/10/12 06:54:05;;;;;;;3.55;2.10;;;;;;;31.72;21.80;97311.16;5136752;27;20050;-63
2023/10/12 06:56:32;;;;;;;3.00;1.90;;;;;;;31.20;22.32;97307.88;5136768;27;20492;-62
2023/10/12 06:59:21;;;;;;;;;;;;;;;31.49;21.88;97309.19;5137208;27;20055;-63
2023/10/12 07:02:09;;;;;;;4.82;1.70;;;;;;;31.48;22.58;97305.66;5136649;27;19920;-63
2023/10/12 07:04:53;;;;;;;2.15;1.70;;;;;;;31.28;22.38;97305.19;5136666;27;20047;-63
2023/10/12 07:07:26;;;;;;;2.25;1.52;;;;;;;31.01;22.72;97296.44;5136526;27;20548;-63
2023/10/12 07:10:12;;;;;;;4.65;1.73;;;;;;;30.80;22.28;97300.50;5136439;27;20047;-63
2023/10/12 07:12:42;;;;;;;3.13;1.65;;;;;;;30.56;22.54;97304.00;5136364;27;20079;-62
2023/10/12 07:15:12;;;;;;;3.88;2.00;;;;;;;30.14;23.09;97307.47;5136398;27;20047;-63
2023/10/12 07:17:48;;;;;;;;;;;;;;;29.76;23.20;97305.13;5136762;27;20076;-63
2023/10/12 07:20:40;;;;;;;4.57;1.58;;;;;;;29.36;24.13;97306.59;5136364;27;20303;-63
2023/10/12 07:23:14;;;;;;;4.88;2.00;;;;;;;28.69;24.03;97299.88;5136285;27;20134;-62
2023/10/12 07:25:43;;;;;;;3.15;1.80;;;;;;;28.39;25.01;97294.75;5136097;27;20046;-63
2023/10/12 07:28:17;;;;;;;1.63;1.35;;;;;;;27.78;24.08;97302.44;5135842;27;20504;-62
2023/10/12 07:30:44;;;;;;;4.55;1.80;;;;;;;26.66;25.43;97289.56;5136183;27;20092;-63
2023/10/12 07:33:11;;;;;;;3.97;1.30;;;;;;;26.47;25.26;97294.81;5135936;27;20047;-63
2023/10/12 07:35:41;;;;;;;2.22;1.58;;;;;;;26.35;25.43;97290.56;5136086;27;20097;-62
2023/10/12 07:38:12;;;;;;;;;;;;;;;26.19;25.73;97291.06;5136490;27;20138;-63
2023/10/12 07:40:49;;;;;;;2.10;1.33;;;;;;;25.76;25.96;97291.25;5135950;27;19931;-63
2023/10/12 07:43:18;;;;;;;3.03;1.98;;;;;;;25.20;26.65;97291.56;5135836;27;20515;-62
2023/10/12 07:45:49;;;;;;;5.03;1.73;;;;;;;24.74;27.70;97289.13;5135787;27;20079;-62
2023/10/12 07:48:29;;;;;;;4.22;1.73;;;;;;;24.57;27.88;97293.25;5135610;27;20054;-62
2023/10/12 07:51:15;;;;;;;2.90;1.60;;;;;;;24.32;28.20;97286.44;5134877;27;20096;-62
2023/10/12 07:53:42;;;;;;;3.58;1.60;;;;;;;24.13;28.36;97282.59;5135548;27;20100;-61
2023/10/12 07:56:15;;;;;;;5.50;1.45;;;;;;;23.95;29.46;97282.22;5135810;27;20066;-62
2023/10/12 07:58:43;;;;;;;3.75;1.60;;;;;;;23.80;28.90;97290.53;5135451;27;20069;-62
2023/10/12 08:01:38;;;;;;;2.00;1.33;;;;;;;23.13;29.88;97278.84;5135611;27;20039;-63
2023/10/12 08:04:19;;;;;;;4.90;1.70;;;;;;;22.70;31.52;97268.72;5135357;27;20054;-62
2023/10/12 08:06:48;;;;;;;;;;;;;;;22.78;31.80;97272.63;5135817;27;20500;-61
2023/10/12 08:09:34;;;;;;;5.15;1.92;;;;;;;22.28;31.77;97273.63;5135431;27;19965;-62
2023/10/12 08:12:24;;;;;;;4.82;2.05;;;;;;;21.97;32.61;97268.75;5135149;27;20447;-62
2023/10/12 08:14:53;;;;;;;2.47;1.67;;;;;;;21.89;32.20;97269.31;5135184;27;20047;-62
2023/10/12 08:17:33;;;;;;;6.85;1.95;;;;;;;21.63;32.50;97272.03;5135112;27;20051;-62
2023/10/12 08:22:46;;;;;;;6.70;1.85;;;;;;;21.72;32.99;97267.84;5134889;27;20097;-62
2023/10/12 08:25:15;;;;;;;3.35;1.58;;;;;;;21.64;33.12;97264.91;5135160;27;20047;-63
2023/10/12 08:27:52;;;;;;;2.38;1.38;;;;;;;21.28;33.53;97268.25;5134649;27;20055;-61
2023/10/12 08:30:23;;;;;;;4.13;1.60;;;;;;;21.38;34.40;97267.59;5134889;27;20051;-62
2023/10/12 08:33:09;;;;;;;2.20;1.50;;;;;;;21.46;33.63;97266.09;5134938;27;20047;-62
2023/10/12 08:35:39;;;;;;;2.70;1.60;;;;;;;21.61;34.27;97265.13;5134953;27;20496;-62
2023/10/12 08:38:15;;;;;;;6.20;1.88;;;;;;;21.75;33.34;97272.09;5134823;27;20099;-62
2023/10/12 08:41:20;;;;;;;5.00;1.90;;;;;;;21.78;33.77;97258.59;5134819;27;20164;-61
2023/10/12 08:43:52;;;;;;;4.07;1.60;;;;;;;21.90;34.17;97255.03;5134689;27;20051;-61
2023/10/12 08:49:33;;;;;;;4.55;1.52;;;;;;;22.25;33.94;97249.88;5134451;27;20092;-62
2023/10/12 08:52:08;;;;;;;2.92;1.88;;;;;;;21.99;32.63;97245.53;5134360;27;20043;-61
2023/10/12 08:54:38;;;;;;;4.82;1.70;;;;;;;21.90;33.52;97243.53;5134514;27;20100;-62
2023/10/12 08:57:17;;;;;;;2.78;1.67;;;;;;;21.77;33.64;97241.78;5134514;27;20043;-62
2023/10/12 08:59:58;;;;;;;3.08;2.10;;;;;;;21.76;33.41;97241.91;5134454;27;20039;-62
2023/10/12 09:02:25;;;;;;;3.60;1.65;;;;;;;21.77;33.67;97238.25;5134190;27;20047;-62
2023/10/12 09:04:54;;;;;;;4.03;1.95;;;;;;;21.77;34.13;97238.25;5134369;27;20043;-62
2023/10/12 09:07:22;;;;;;;5.43;2.10;;;;;;;21.96;34.95;97237.75;5134150;27;20460;-62
2023/10/12 09:09:49;;;;;;;6.22;2.05;;;;;;;22.22;33.53;97230.47;5134278;27;20059;-63
2023/10/12 09:12:19;;;;;;;8.02;2.10;;;;;;;22.10;32.63;97223.44;5134257;27;20043;-63
2023/10/12 09:14:46;;;;;;;3.58;1.40;;;;;;;21.66;34.26;97223.88;5134261;27;20089;-62
2023/10/12 09:17:30;;;;;;;5.57;1.45;;;;;;;21.83;33.94;97225.34;5134186;27;20100;-61
2023/10/12 09:20:12;;;;;;;7.97;1.83;;;;;;;21.75;34.43;97218.84;5134053;27;20126;-61
2023/10/12 09:22:40;;;;;;;3.60;2.05;;;;;;;21.90;34.97;97216.91;5134116;27;20050;-60
2023/10/12 09:25:26;;;;;;;2.85;1.70;;;;;;;21.99;34.45;97213.56;5134163;27;20039;-63
2023/10/12 09:27:55;;;;;;;4.93;1.77;;;;;;;22.06;34.05;97212.13;5133739;27;20070;-61
2023/10/12 09:30:26;;;;;;;6.10;1.63;;;;;;;22.20;34.19;97215.59;5133951;28;20054;-63
2023/10/12 09:33:06;;;;;;;6.40;1.90;;;;;;;22.36;33.98;97209.13;5134096;27;20126;-63
2023/10/12 09:35:39;;;;;;;3.50;1.88;;;;;;;22.31;33.06;97204.13;5133899;28;20096;-63
2023/10/12 09:38:07;;;;;;;6.22;1.48;;;;;;;22.34;32.89;97203.91;5133905;28;20051;-63
2023/10/12 09:40:39;;;;;;;6.60;1.90;;;;;;;22.18;32.71;97196.19;5133827;28;20142;-63
2023/10/12 09:43:12;;;;;;;4.38;1.58;;;;;;;22.16;34.02;97195.47;5133868;28;20476;-63
2023/10/12 09:45:45;;;;;;;4.28;1.70;;;;;;;22.29;33.02;97190.06;5133854;27;20051;-62
2023/10/12 09:48:19;;;;;;;3.08;1.90;;;;;;;22.19;32.01;97176.59;5133733;28;20150;-62
2023/10/12 09:50:52;;;;;;;3.63;1.77;;;;;;;21.69;33.54;97172.22;5133808;28;20043;-62
2023/10/12 09:53:26;;;;;;;10.23;1.80;;;;;;;21.68;32.97;97174.06;5133868;27;20127;-63
2023/10/12 09:56:10;;;;;;;3.53;1.52;;;;;;;21.56;34.18;97170.50;5133918;27;20071;-62
2023/10/12 09:58:45;;;;;;;6.43;1.60;;;;;;;21.69;34.95;97156.25;5133780;27;20047;-63
2023/10/12 10:01:17;;;;;;;4.75;1.30;;;;;;;21.91;34.17;97165.38;5133622;28;20088;-63
2023/10/12 10:03:49;;;;;;;8.32;1.63;;;;;;;22.05;33.57;97156.31;5133729;28;20492;-62
2023/10/12 10:06:28;;;;;;;5.60;2.03;;;;;;;22.03;33.40;97156.44;5133656;28;20397;-63
2023/10/12 10:11:58;;;;;;;6.57;1.92;;;;;;;21.80;34.54;97147.53;5117585;27;20043;-62
2023/10/12 10:14:29;;;;;;;3.75;1.50;;;;;;;21.84;33.81;97139.19;5135575;27;20130;-63
2023/10/12 10:16:59;;;;;;;9.48;1.90;;;;;;;21.75;33.70;97139.88;5137535;27;20047;-63
2023/10/12 10:19:29;;;;;;;3.83;1.70;;;;;;;21.76;34.28;97128.25;5137753;27;20050;-64
2023/10/12 10:22:11;;;;;;;2.85;1.50;;;;;;;21.69;35.06;97130.50;5137582;27;20445;-63
2023/10/12 10:24:50;;;;;;;11.82;1.70;;;;;;;21.74;34.04;97123.97;5137448;27;20047;-63
2023/10/12 10:27:19;;;;;;;5.03;2.15;;;;;;;21.83;34.41;97118.00;5137183;27;20051;-63
2023/10/12 10:29:53;;;;;;;2.50;1.58;;;;;;;21.88;34.15;97115.00;5137209;27;20061;-63
2023/10/12 10:32:36;;;;;;;6.60;1.73;;;;;;;21.81;34.87;97109.28;5137163;27;20498;-62
2023/10/12 10:35:12;;;;;;;4.75;2.75;;;;;;;21.68;33.76;97111.97;5137154;27;20127;-63
2023/10/12 10:37:57;;;;;;;2.60;1.85;;;;;;;21.45;34.16;97107.41;5137111;27;20039;-63
2023/10/12 10:40:39;;;;;;;4.72;1.70;;;;;;;21.38;35.02;97099.97;5137050;27;20047;-63
2023/10/12 10:43:14;;;;;;;13.02;2.20;;;;;;;21.32;35.19;97106.59;5137014;27;20043;-63
2023/10/12 10:45:42;;;;;;;4.38;1.70;;;;;;;21.45;35.26;97094.09;5136908;27;20434;-63
2023/10/12 10:48:13;;;;;;;7.43;1.70;;;;;;;21.55;34.74;97090.75;5136897;27;20051;-63
2023/10/12 10:50:49;;;;;;;6.32;1.77;;;;;;;21.56;35.00;97095.97;5136772;27;20107;-63
2023/10/12 10:53:16;;;;;;;6.30;2.00;;;;;;;21.69;34.60;97087.91;5136731;27;20047;-63
2023/10/12 10:55:47;;;;;;;5.35;1.65;;;;;;;21.84;34.50;97075.28;5136737;27;20085;-63
2023/10/12 10:58:17;;;;;;;4.43;1.67;;;;;;;21.87;34.36;97071.53;5136651;27;20057;-64
2023/10/12 11:00:46;;;;;;;4.53;1.75;;;;;;;21.81;34.37;97070.19;5136716;27;20043;-63
2023/10/12 11:03:16;;;;;;;4.15;1.83;;;;;;;21.85;33.86;97078.78;5136557;27;20051;-64
2023/10/12 11:05:45;;;;;;;10.30;2.83;;;;;;;21.76;34.10;97063.53;5136540;27;20051;-62
2023/10/12 11:08:19;;;;;;;7.63;1.83;;;;;;;21.75;34.30;97060.00;5136310;27;20058;-63
2023/10/12 11:13:50;;;;;;;;;;;;;;;21.93;34.35;97057.75;5073668;28;20131;-63
2023/10/12 11:16:28;;;;;;;2.35;1.60;;;;;;;21.98;34.09;97052.09;5073168;28;19991;-64
2023/10/12 11:18:57;;;;;;;5.07;1.70;;;;;;;21.96;33.87;97044.22;5106501;27;20035;-63
2023/10/12 11:21:26;;;;;;;2.63;1.52;;;;;;;21.88;33.21;97035.13;5136284;27;20069;-63
2023/10/12 11:24:02;;;;;;;4.13;1.83;;;;;;;21.95;33.27;97047.00;5136205;27;20129;-62
2023/10/12 11:26:29;;;;;;;7.57;1.85;;;;;;;21.94;34.12;97038.16;5135852;27;20377;-63
2023/10/12 11:29:06;;;;;;;9.18;2.15;;;;;;;21.96;33.99;97033.56;5136124;27;20160;-62
2023/10/12 11:31:33;;;;;;;6.03;1.80;;;;;;;21.91;33.78;97030.41;5136073;27;20055;-63
2023/10/12 11:34:06;;;;;;;4.28;1.98;;;;;;;21.72;34.11;97020.28;5136152;27;20045;-63
2023/10/12 11:36:36;;;;;;;2.75;1.77;;;;;;;21.70;33.81;97016.88;5135934;27;20100;-63
2023/10/12 11:39:10;;;;;;;3.25;2.08;;;;;;;21.72;34.54;97020.28;5135914;27;20054;-63
2023/10/12 11:41:38;;;;;;;7.00;2.03;;;;;;;21.68;34.33;97024.16;5135901;27;20055;-62
2023/10/12 11:44:07;;;;;;;7.57;1.60;;;;;;;21.65;34.54;97014.59;5135770;27;20162;-64
2023/10/12 11:46:44;;;;;;;13.38;1.85;;;;;;;21.78;34.21;97019.00;5135864;27;20499;-63
2023/10/12 11:49:12;;;;;;;4.10;1.85;;;;;;;21.75;34.10;97019.19;5135653;27;20392;-63
2023/10/12 11:51:50;;;;;;;4.57;1.92;;;;;;;21.82;34.33;97017.78;5135675;27;20501;-63
2023/10/12 11:54:21;;;;;;;4.75;2.15;;;;;;;21.89;33.99;97016.38;5135539;27;20047;-63
2023/10/12 11:56:49;;;;;;;3.08;1.70;;;;;;;21.88;34.28;97017.31;5135566;27;20469;-62
2023/10/12 11:59:26;;;;;;;3.25;1.83;;;;;;;21.87;33.70;97017.44;5135532;27;20169;-63
2023/10/12 12:01:56;;;;;;;6.05;2.15;;;;;;;21.86;34.44;97011.28;5135453;27;20039;-62
2023/10/12 12:04:31;;;;;;;2.38;1.80;;;;;;;21.93;33.88;97011.63;5135381;27;20426;-63
2023/10/12 12:06:59;;;;;;;3.17;2.25;;;;;;;21.92;34.47;97012.63;5135454;27;20047;-63
2023/10/12 12:09:29;;;;;;;6.05;1.67;;;;;;;21.93;33.48;97001.84;5135284;27;20047;-63
2023/10/12 12:11:57;;;;;;;3.67;1.90;;;;;;;21.97;33.40;97005.09;5135312;27;20051;-62
2023/10/12 12:14:26;;;;;;;2.90;1.60;;;;;;;21.83;33.52;96999.03;5135183;27;20050;-62
2023/10/12 12:16:53;;;;;;;5.55;1.63;;;;;;;21.83;33.87;96993.69;5135120;27;20043;-63
2023/10/12 12:19:24;;;;;;;5.40;2.20;;;;;;;21.83;32.86;96995.53;5135108;27;20047;-63
2023/10/12 12:21:52;;;;;;;4.97;1.40;;;;;;;21.69;33.49;96988.56;5135095;27;20130;-62
2023/10/12 12:24:24;;;;;;;4.25;1.80;;;;;;;21.59;33.93;96985.78;5134994;27;20053;-62
2023/10/12 12:26:53;;;;;;;2.50;1.60;;;;;;;21.65;34.08;96985.31;5134803;27;20121;-64
2023/10/12 12:29:25;;;;;;;5.10;2.28;;;;;;;21.71;33.92;96976.81;5134823;27;20132;-63
2023/10/12 12:31:57;;;;;;;3.33;1.58;;;;;;;21.76;34.07;96970.34;5134786;27;20508;-63
2023/10/12 12:37:07;;;;;;;6.30;1.80;;;;;;;21.81;33.77;96969.03;5131538;27;20075;-62
2023/10/12 12:39:35;;;;;;;7.95;1.65;;;;;;;21.83;33.70;96961.75;5134760;27;20049;-63
2023/10/12 12:42:04;;;;;;;3.35;1.52;;;;;;;21.85;34.01;96961.63;5134758;27;20043;-62
2023/10/12 12:44:31;;;;;;;6.80;1.60;;;;;;;21.92;33.85;96954.03;5134683;27;20086;-63